sensor_id;sensor_type;location;lat;lon;timestamp;P1;durP1;ratioP1;P2;durP2;ratioP2
84373;SDS011;74563;52.206;14.630;2024-02-26T00:02:15;16.70;;;7.43;;
84373;SDS011;74563;52.206;14.630;2024-02-26T00:04:41;19.45;;;8.02;;
84373;SDS011;74563;52.206;14.630;2024-02-26T00:07:06;17.13;;;7.43;;
84373;SDS011;74563;52.206;14.630;2024-02-26T00:09:32;15.70;;;7.30;;
84373;SDS011;74563;52.206;14.630;2024-02-26T00:12:00;16.88;;;7.72;;
84373;SDS011;74563;52.206;14.630;2024-02-26T00:14:26;21.25;;;7.72;;
84373;SDS011;74563;52.206;14.630;2024-02-26T00:16:51;26.13;;;10.50;;
84373;SDS011;74563;52.206;14.630;2024-02-26T00:19:16;16.38;;;7.75;;
84373;SDS011;74563;52.206;14.630;2024-02-26T00:21:42;19.57;;;8.53;;
84373;SDS011;74563;52.206;14.630;2024-02-26T00:24:07;16.93;;;7.37;;
84373;SDS011;74563;52.206;14.630;2024-02-26T00:26:32;14.02;;;6.45;;
84373;SDS011;74563;52.206;14.630;2024-02-26T00:28:58;16.57;;;7.00;;
84373;SDS011;74563;52.206;14.630;2024-02-26T00:31:23;14.23;;;6.47;;
84373;SDS011;74563;52.206;14.630;2024-02-26T00:33:48;22.73;;;8.80;;
84373;SDS011;74563;52.206;14.630;2024-02-26T00:36:13;16.47;;;7.03;;
84373;SDS011;74563;52.206;14.630;2024-02-26T00:38:39;28.53;;;11.20;;
84373;SDS011;74563;52.206;14.630;2024-02-26T00:41:05;15.90;;;6.95;;
84373;SDS011;74563;52.206;14.630;2024-02-26T00:43:31;18.70;;;7.28;;
84373;SDS011;74563;52.206;14.630;2024-02-26T00:45:56;19.63;;;8.13;;
84373;SDS011;74563;52.206;14.630;2024-02-26T00:48:21;18.53;;;7.63;;
84373;SDS011;74563;52.206;14.630;2024-02-26T00:50:47;22.05;;;8.75;;
84373;SDS011;74563;52.206;14.630;2024-02-26T00:53:12;20.77;;;8.10;;
84373;SDS011;74563;52.206;14.630;2024-02-26T00:55:37;16.50;;;7.10;;
84373;SDS011;74563;52.206;14.630;2024-02-26T00:58:02;13.43;;;6.10;;
84373;SDS011;74563;52.206;14.630;2024-02-26T01:00:28;17.00;;;7.28;;
84373;SDS011;74563;52.206;14.630;2024-02-26T01:02:53;20.83;;;8.53;;
84373;SDS011;74563;52.206;14.630;2024-02-26T01:05:18;16.80;;;7.40;;
84373;SDS011;74563;52.206;14.630;2024-02-26T01:07:44;21.95;;;8.90;;
84373;SDS011;74563;52.206;14.630;2024-02-26T01:10:09;17.40;;;7.37;;
84373;SDS011;74563;52.206;14.630;2024-02-26T01:12:34;19.80;;;7.78;;
84373;SDS011;74563;52.206;14.630;2024-02-26T01:15:01;18.73;;;7.38;;
84373;SDS011;74563;52.206;14.630;2024-02-26T01:17:27;18.50;;;7.63;;
84373;SDS011;74563;52.206;14.630;2024-02-26T01:19:53;20.92;;;8.85;;
84373;SDS011;74563;52.206;14.630;2024-02-26T01:22:19;17.45;;;6.95;;
84373;SDS011;74563;52.206;14.630;2024-02-26T01:24:44;21.33;;;8.40;;
84373;SDS011;74563;52.206;14.630;2024-02-26T01:27:09;18.73;;;7.77;;
84373;SDS011;74563;52.206;14.630;2024-02-26T01:29:34;19.80;;;8.57;;
84373;SDS011;74563;52.206;14.630;2024-02-26T01:32:00;17.70;;;7.17;;
84373;SDS011;74563;52.206;14.630;2024-02-26T01:34:25;26.70;;;10.27;;
84373;SDS011;74563;52.206;14.630;2024-02-26T01:36:50;18.23;;;8.00;;
84373;SDS011;74563;52.206;14.630;2024-02-26T01:39:16;21.63;;;8.67;;
84373;SDS011;74563;52.206;14.630;2024-02-26T01:41:41;22.02;;;9.00;;
84373;SDS011;74563;52.206;14.630;2024-02-26T01:44:06;19.53;;;8.30;;
84373;SDS011;74563;52.206;14.630;2024-02-26T01:46:32;19.20;;;8.27;;
84373;SDS011;74563;52.206;14.630;2024-02-26T01:48:59;19.65;;;8.35;;
84373;SDS011;74563;52.206;14.630;2024-02-26T01:51:26;17.75;;;7.32;;
84373;SDS011;74563;52.206;14.630;2024-02-26T01:53:51;24.98;;;9.75;;
84373;SDS011;74563;52.206;14.630;2024-02-26T01:56:17;17.92;;;8.05;;
84373;SDS011;74563;52.206;14.630;2024-02-26T01:58:43;21.27;;;8.95;;
84373;SDS011;74563;52.206;14.630;2024-02-26T02:01:09;21.27;;;8.75;;
84373;SDS011;74563;52.206;14.630;2024-02-26T02:03:34;22.17;;;8.80;;
84373;SDS011;74563;52.206;14.630;2024-02-26T02:06:01;21.02;;;8.95;;
84373;SDS011;74563;52.206;14.630;2024-02-26T02:08:27;24.70;;;10.10;;
84373;SDS011;74563;52.206;14.630;2024-02-26T02:10:52;22.67;;;9.33;;
84373;SDS011;74563;52.206;14.630;2024-02-26T02:13:17;18.95;;;7.47;;
84373;SDS011;74563;52.206;14.630;2024-02-26T02:15:43;22.57;;;8.37;;
84373;SDS011;74563;52.206;14.630;2024-02-26T02:18:08;18.47;;;7.70;;
84373;SDS011;74563;52.206;14.630;2024-02-26T02:20:34;18.90;;;8.17;;
84373;SDS011;74563;52.206;14.630;2024-02-26T02:22:59;21.85;;;9.05;;
84373;SDS011;74563;52.206;14.630;2024-02-26T02:25:25;22.42;;;9.00;;
84373;SDS011;74563;52.206;14.630;2024-02-26T02:27:50;23.23;;;9.45;;
84373;SDS011;74563;52.206;14.630;2024-02-26T02:30:18;18.58;;;7.80;;
84373;SDS011;74563;52.206;14.630;2024-02-26T02:32:44;23.33;;;9.52;;
84373;SDS011;74563;52.206;14.630;2024-02-26T02:35:09;23.15;;;9.02;;
84373;SDS011;74563;52.206;14.630;2024-02-26T02:37:35;20.57;;;9.00;;
84373;SDS011;74563;52.206;14.630;2024-02-26T02:40:00;21.60;;;8.57;;
84373;SDS011;74563;52.206;14.630;2024-02-26T02:42:26;23.00;;;8.93;;
84373;SDS011;74563;52.206;14.630;2024-02-26T02:44:51;28.52;;;10.90;;
84373;SDS011;74563;52.206;14.630;2024-02-26T02:47:16;21.80;;;9.23;;
84373;SDS011;74563;52.206;14.630;2024-02-26T02:49:42;27.27;;;10.40;;
84373;SDS011;74563;52.206;14.630;2024-02-26T02:52:07;25.20;;;9.47;;
84373;SDS011;74563;52.206;14.630;2024-02-26T02:54:32;43.63;;;9.60;;
84373;SDS011;74563;52.206;14.630;2024-02-26T02:56:57;26.80;;;8.47;;
84373;SDS011;74563;52.206;14.630;2024-02-26T02:59:23;22.83;;;8.77;;
84373;SDS011;74563;52.206;14.630;2024-02-26T03:01:48;22.83;;;9.10;;
84373;SDS011;74563;52.206;14.630;2024-02-26T03:04:13;49.70;;;19.67;;
84373;SDS011;74563;52.206;14.630;2024-02-26T03:06:39;39.50;;;9.43;;
84373;SDS011;74563;52.206;14.630;2024-02-26T03:09:04;27.97;;;8.70;;
84373;SDS011;74563;52.206;14.630;2024-02-26T03:11:29;27.70;;;8.20;;
84373;SDS011;74563;52.206;14.630;2024-02-26T03:13:54;21.93;;;9.03;;
84373;SDS011;74563;52.206;14.630;2024-02-26T03:16:20;21.15;;;8.60;;
84373;SDS011;74563;52.206;14.630;2024-02-26T03:18:45;28.20;;;10.57;;
84373;SDS011;74563;52.206;14.630;2024-02-26T03:21:10;19.90;;;7.57;;
84373;SDS011;74563;52.206;14.630;2024-02-26T03:23:35;21.13;;;9.17;;
84373;SDS011;74563;52.206;14.630;2024-02-26T03:26:04;19.67;;;8.35;;
84373;SDS011;74563;52.206;14.630;2024-02-26T03:28:30;23.10;;;9.45;;
84373;SDS011;74563;52.206;14.630;2024-02-26T03:30:58;25.38;;;10.02;;
84373;SDS011;74563;52.206;14.630;2024-02-26T03:33:23;25.48;;;9.82;;
84373;SDS011;74563;52.206;14.630;2024-02-26T03:35:49;31.50;;;10.37;;
84373;SDS011;74563;52.206;14.630;2024-02-26T03:38:14;26.33;;;9.13;;
84373;SDS011;74563;52.206;14.630;2024-02-26T03:40:39;26.97;;;9.67;;
84373;SDS011;74563;52.206;14.630;2024-02-26T03:43:04;23.43;;;9.67;;
84373;SDS011;74563;52.206;14.630;2024-02-26T03:45:32;24.27;;;9.52;;
84373;SDS011;74563;52.206;14.630;2024-02-26T03:47:57;35.87;;;12.03;;
84373;SDS011;74563;52.206;14.630;2024-02-26T03:50:22;31.70;;;9.93;;
84373;SDS011;74563;52.206;14.630;2024-02-26T03:52:48;23.80;;;9.50;;
84373;SDS011;74563;52.206;14.630;2024-02-26T03:55:13;23.57;;;9.43;;
84373;SDS011;74563;52.206;14.630;2024-02-26T03:57:38;22.38;;;9.43;;
84373;SDS011;74563;52.206;14.630;2024-02-26T04:00:04;23.37;;;9.13;;
84373;SDS011;74563;52.206;14.630;2024-02-26T04:02:29;24.90;;;9.38;;
84373;SDS011;74563;52.206;14.630;2024-02-26T04:04:55;24.47;;;9.63;;
84373;SDS011;74563;52.206;14.630;2024-02-26T04:07:20;21.33;;;8.37;;
84373;SDS011;74563;52.206;14.630;2024-02-26T04:09:45;22.57;;;9.10;;
84373;SDS011;74563;52.206;14.630;2024-02-26T04:12:10;19.80;;;8.03;;
84373;SDS011;74563;52.206;14.630;2024-02-26T04:14:36;15.82;;;6.63;;
84373;SDS011;74563;52.206;14.630;2024-02-26T04:17:01;18.95;;;7.53;;
84373;SDS011;74563;52.206;14.630;2024-02-26T04:19:27;14.18;;;6.57;;
84373;SDS011;74563;52.206;14.630;2024-02-26T04:21:52;24.60;;;9.30;;
84373;SDS011;74563;52.206;14.630;2024-02-26T04:24:17;19.47;;;7.97;;
84373;SDS011;74563;52.206;14.630;2024-02-26T04:26:43;20.13;;;8.30;;
84373;SDS011;74563;52.206;14.630;2024-02-26T04:29:08;22.17;;;8.33;;
84373;SDS011;74563;52.206;14.630;2024-02-26T04:31:33;24.03;;;9.57;;
84373;SDS011;74563;52.206;14.630;2024-02-26T04:33:58;28.70;;;11.47;;
84373;SDS011;74563;52.206;14.630;2024-02-26T04:36:24;28.77;;;11.00;;
84373;SDS011;74563;52.206;14.630;2024-02-26T04:38:50;31.17;;;11.73;;
84373;SDS011;74563;52.206;14.630;2024-02-26T04:41:16;29.80;;;11.18;;
84373;SDS011;74563;52.206;14.630;2024-02-26T04:43:41;26.50;;;11.10;;
84373;SDS011;74563;52.206;14.630;2024-02-26T04:46:09;29.38;;;11.85;;
84373;SDS011;74563;52.206;14.630;2024-02-26T04:48:35;24.52;;;10.73;;
84373;SDS011;74563;52.206;14.630;2024-02-26T04:51:01;24.25;;;10.10;;
84373;SDS011;74563;52.206;14.630;2024-02-26T04:53:27;25.25;;;10.60;;
84373;SDS011;74563;52.206;14.630;2024-02-26T04:55:52;25.20;;;10.57;;
84373;SDS011;74563;52.206;14.630;2024-02-26T04:58:18;21.70;;;9.60;;
84373;SDS011;74563;52.206;14.630;2024-02-26T05:00:43;25.73;;;10.23;;
84373;SDS011;74563;52.206;14.630;2024-02-26T05:03:08;25.23;;;10.55;;
84373;SDS011;74563;52.206;14.630;2024-02-26T05:05:37;23.65;;;9.20;;
84373;SDS011;74563;52.206;14.630;2024-02-26T05:08:03;23.70;;;9.60;;
84373;SDS011;74563;52.206;14.630;2024-02-26T05:10:28;24.73;;;10.32;;
84373;SDS011;74563;52.206;14.630;2024-02-26T05:12:54;25.93;;;11.23;;
84373;SDS011;74563;52.206;14.630;2024-02-26T05:15:19;23.80;;;9.60;;
84373;SDS011;74563;52.206;14.630;2024-02-26T05:17:44;25.53;;;10.43;;
84373;SDS011;74563;52.206;14.630;2024-02-26T05:20:10;21.88;;;9.13;;
84373;SDS011;74563;52.206;14.630;2024-02-26T05:22:35;21.95;;;9.25;;
84373;SDS011;74563;52.206;14.630;2024-02-26T05:27:28;20.23;;;8.98;;
84373;SDS011;74563;52.206;14.630;2024-02-26T05:29:53;23.88;;;10.02;;
84373;SDS011;74563;52.206;14.630;2024-02-26T05:32:19;24.58;;;9.70;;
84373;SDS011;74563;52.206;14.630;2024-02-26T05:34:44;26.83;;;10.23;;
84373;SDS011;74563;52.206;14.630;2024-02-26T05:37:09;24.27;;;9.70;;
84373;SDS011;74563;52.206;14.630;2024-02-26T05:39:35;20.63;;;9.13;;
84373;SDS011;74563;52.206;14.630;2024-02-26T05:42:00;24.83;;;9.90;;
84373;SDS011;74563;52.206;14.630;2024-02-26T05:44:26;22.63;;;9.23;;
84373;SDS011;74563;52.206;14.630;2024-02-26T05:46:51;26.95;;;10.65;;
84373;SDS011;74563;52.206;14.630;2024-02-26T05:49:16;24.73;;;10.27;;
84373;SDS011;74563;52.206;14.630;2024-02-26T05:51:42;22.57;;;9.33;;
84373;SDS011;74563;52.206;14.630;2024-02-26T05:54:07;25.08;;;9.50;;
84373;SDS011;74563;52.206;14.630;2024-02-26T05:56:33;23.60;;;9.50;;
84373;SDS011;74563;52.206;14.630;2024-02-26T05:58:58;26.17;;;10.35;;
84373;SDS011;74563;52.206;14.630;2024-02-26T06:01:23;22.30;;;9.43;;
84373;SDS011;74563;52.206;14.630;2024-02-26T06:03:51;27.20;;;10.70;;
84373;SDS011;74563;52.206;14.630;2024-02-26T06:06:16;26.42;;;9.23;;
84373;SDS011;74563;52.206;14.630;2024-02-26T06:08:43;34.97;;;14.52;;
84373;SDS011;74563;52.206;14.630;2024-02-26T06:11:09;22.42;;;9.05;;
84373;SDS011;74563;52.206;14.630;2024-02-26T06:16:00;20.77;;;9.03;;
84373;SDS011;74563;52.206;14.630;2024-02-26T06:18:26;22.38;;;8.93;;
84373;SDS011;74563;52.206;14.630;2024-02-26T06:20:51;25.50;;;9.90;;
84373;SDS011;74563;52.206;14.630;2024-02-26T06:23:16;21.47;;;8.40;;
84373;SDS011;74563;52.206;14.630;2024-02-26T06:25:42;18.67;;;7.73;;
84373;SDS011;74563;52.206;14.630;2024-02-26T06:28:10;19.08;;;8.25;;
84373;SDS011;74563;52.206;14.630;2024-02-26T06:30:35;24.43;;;9.40;;
84373;SDS011;74563;52.206;14.630;2024-02-26T06:33:01;21.17;;;7.43;;
84373;SDS011;74563;52.206;14.630;2024-02-26T06:35:26;41.38;;;10.27;;
84373;SDS011;74563;52.206;14.630;2024-02-26T06:37:52;27.63;;;10.60;;
84373;SDS011;74563;52.206;14.630;2024-02-26T06:40:18;37.88;;;9.18;;
84373;SDS011;74563;52.206;14.630;2024-02-26T06:42:44;27.83;;;9.73;;
84373;SDS011;74563;52.206;14.630;2024-02-26T06:45:09;25.52;;;9.45;;
84373;SDS011;74563;52.206;14.630;2024-02-26T06:47:34;28.37;;;9.60;;
84373;SDS011;74563;52.206;14.630;2024-02-26T06:50:00;27.15;;;9.77;;
84373;SDS011;74563;52.206;14.630;2024-02-26T06:52:26;27.35;;;9.50;;
84373;SDS011;74563;52.206;14.630;2024-02-26T06:54:51;24.85;;;9.82;;
84373;SDS011;74563;52.206;14.630;2024-02-26T06:57:20;22.92;;;9.85;;
84373;SDS011;74563;52.206;14.630;2024-02-26T06:59:46;42.40;;;15.50;;
84373;SDS011;74563;52.206;14.630;2024-02-26T07:02:12;21.08;;;8.90;;
84373;SDS011;74563;52.206;14.630;2024-02-26T07:04:38;21.75;;;8.60;;
84373;SDS011;74563;52.206;14.630;2024-02-26T07:07:03;18.13;;;7.97;;
84373;SDS011;74563;52.206;14.630;2024-02-26T07:09:28;20.47;;;8.80;;
84373;SDS011;74563;52.206;14.630;2024-02-26T07:11:53;24.10;;;10.20;;
84373;SDS011;74563;52.206;14.630;2024-02-26T07:14:20;30.90;;;13.13;;
84373;SDS011;74563;52.206;14.630;2024-02-26T07:16:45;17.95;;;8.05;;
84373;SDS011;74563;52.206;14.630;2024-02-26T07:19:11;20.70;;;9.02;;
84373;SDS011;74563;52.206;14.630;2024-02-26T07:21:36;23.42;;;9.70;;
84373;SDS011;74563;52.206;14.630;2024-02-26T07:24:02;21.45;;;9.65;;
84373;SDS011;74563;52.206;14.630;2024-02-26T07:26:27;21.70;;;8.80;;
84373;SDS011;74563;52.206;14.630;2024-02-26T07:28:54;22.25;;;9.85;;
84373;SDS011;74563;52.206;14.630;2024-02-26T07:31:20;25.63;;;11.07;;
84373;SDS011;74563;52.206;14.630;2024-02-26T07:33:45;25.00;;;9.60;;
84373;SDS011;74563;52.206;14.630;2024-02-26T07:36:10;23.42;;;10.23;;
84373;SDS011;74563;52.206;14.630;2024-02-26T07:38:37;26.90;;;11.23;;
84373;SDS011;74563;52.206;14.630;2024-02-26T07:41:02;23.60;;;10.20;;
84373;SDS011;74563;52.206;14.630;2024-02-26T07:43:27;25.00;;;10.60;;
84373;SDS011;74563;52.206;14.630;2024-02-26T07:45:53;27.00;;;11.37;;
84373;SDS011;74563;52.206;14.630;2024-02-26T07:48:18;27.33;;;11.73;;
84373;SDS011;74563;52.206;14.630;2024-02-26T07:50:43;25.70;;;10.87;;
84373;SDS011;74563;52.206;14.630;2024-02-26T07:53:08;24.77;;;10.40;;
84373;SDS011;74563;52.206;14.630;2024-02-26T07:55:34;27.10;;;11.33;;
84373;SDS011;74563;52.206;14.630;2024-02-26T07:57:59;28.65;;;12.52;;
84373;SDS011;74563;52.206;14.630;2024-02-26T08:00:25;32.10;;;14.68;;
84373;SDS011;74563;52.206;14.630;2024-02-26T08:02:50;33.90;;;15.80;;
84373;SDS011;74563;52.206;14.630;2024-02-26T08:05:15;22.70;;;8.80;;
84373;SDS011;74563;52.206;14.630;2024-02-26T08:07:41;27.17;;;12.57;;
84373;SDS011;74563;52.206;14.630;2024-02-26T08:10:06;29.95;;;12.07;;
84373;SDS011;74563;52.206;14.630;2024-02-26T08:12:32;20.90;;;9.25;;
84373;SDS011;74563;52.206;14.630;2024-02-26T08:14:57;36.20;;;15.17;;
84373;SDS011;74563;52.206;14.630;2024-02-26T08:17:23;23.25;;;10.90;;
84373;SDS011;74563;52.206;14.630;2024-02-26T08:19:48;27.03;;;10.67;;
84373;SDS011;74563;52.206;14.630;2024-02-26T08:22:13;32.70;;;13.30;;
84373;SDS011;74563;52.206;14.630;2024-02-26T08:24:41;32.90;;;14.45;;
84373;SDS011;74563;52.206;14.630;2024-02-26T08:27:07;27.00;;;11.93;;
84373;SDS011;74563;52.206;14.630;2024-02-26T08:29:32;27.48;;;12.95;;
84373;SDS011;74563;52.206;14.630;2024-02-26T08:31:57;23.13;;;10.87;;
84373;SDS011;74563;52.206;14.630;2024-02-26T08:34:23;28.00;;;12.80;;
84373;SDS011;74563;52.206;14.630;2024-02-26T08:36:48;29.83;;;13.67;;
84373;SDS011;74563;52.206;14.630;2024-02-26T08:39:14;26.85;;;12.55;;
84373;SDS011;74563;52.206;14.630;2024-02-26T08:41:39;29.42;;;13.27;;
84373;SDS011;74563;52.206;14.630;2024-02-26T08:44:04;27.40;;;11.77;;
84373;SDS011;74563;52.206;14.630;2024-02-26T08:46:30;26.85;;;12.13;;
84373;SDS011;74563;52.206;14.630;2024-02-26T08:48:55;29.23;;;13.77;;
84373;SDS011;74563;52.206;14.630;2024-02-26T08:51:21;33.87;;;15.33;;
84373;SDS011;74563;52.206;14.630;2024-02-26T08:53:46;30.80;;;13.50;;
84373;SDS011;74563;52.206;14.630;2024-02-26T08:56:12;26.13;;;12.93;;
84373;SDS011;74563;52.206;14.630;2024-02-26T08:58:44;27.58;;;12.23;;
84373;SDS011;74563;52.206;14.630;2024-02-26T09:01:11;27.70;;;13.05;;
84373;SDS011;74563;52.206;14.630;2024-02-26T09:03:36;26.17;;;12.13;;
84373;SDS011;74563;52.206;14.630;2024-02-26T09:06:01;28.50;;;13.27;;
84373;SDS011;74563;52.206;14.630;2024-02-26T09:08:27;26.55;;;11.75;;
84373;SDS011;74563;52.206;14.630;2024-02-26T09:10:52;23.97;;;11.63;;
84373;SDS011;74563;52.206;14.630;2024-02-26T09:13:18;22.15;;;11.57;;
84373;SDS011;74563;52.206;14.630;2024-02-26T09:15:43;30.45;;;13.00;;
84373;SDS011;74563;52.206;14.630;2024-02-26T09:18:09;25.38;;;13.02;;
84373;SDS011;74563;52.206;14.630;2024-02-26T09:20:34;20.30;;;9.48;;
84373;SDS011;74563;52.206;14.630;2024-02-26T09:23:00;22.05;;;9.93;;
84373;SDS011;74563;52.206;14.630;2024-02-26T09:25:25;21.67;;;10.07;;
84373;SDS011;74563;52.206;14.630;2024-02-26T09:27:50;25.33;;;12.63;;
84373;SDS011;74563;52.206;14.630;2024-02-26T09:30:16;26.93;;;12.93;;
84373;SDS011;74563;52.206;14.630;2024-02-26T09:32:41;24.53;;;11.70;;
84373;SDS011;74563;52.206;14.630;2024-02-26T09:35:10;24.52;;;10.90;;
84373;SDS011;74563;52.206;14.630;2024-02-26T09:37:35;22.60;;;11.27;;
84373;SDS011;74563;52.206;14.630;2024-02-26T09:40:01;25.88;;;12.98;;
84373;SDS011;74563;52.206;14.630;2024-02-26T09:42:28;22.00;;;11.65;;
84373;SDS011;74563;52.206;14.630;2024-02-26T09:44:56;27.75;;;13.95;;
84373;SDS011;74563;52.206;14.630;2024-02-26T09:47:26;27.20;;;12.38;;
84373;SDS011;74563;52.206;14.630;2024-02-26T09:49:56;25.23;;;12.55;;
84373;SDS011;74563;52.206;14.630;2024-02-26T09:52:23;24.88;;;12.18;;
84373;SDS011;74563;52.206;14.630;2024-02-26T09:57:14;22.47;;;10.73;;
84373;SDS011;74563;52.206;14.630;2024-02-26T09:59:42;53.30;;;22.02;;
84373;SDS011;74563;52.206;14.630;2024-02-26T10:02:09;26.13;;;12.40;;
84373;SDS011;74563;52.206;14.630;2024-02-26T10:04:37;22.50;;;11.43;;
84373;SDS011;74563;52.206;14.630;2024-02-26T10:07:04;24.75;;;11.93;;
84373;SDS011;74563;52.206;14.630;2024-02-26T10:09:34;21.40;;;11.43;;
84373;SDS011;74563;52.206;14.630;2024-02-26T10:12:00;26.42;;;12.57;;
84373;SDS011;74563;52.206;14.630;2024-02-26T10:16:50;24.67;;;12.20;;
84373;SDS011;74563;52.206;14.630;2024-02-26T10:21:55;23.30;;;11.07;;
84373;SDS011;74563;52.206;14.630;2024-02-26T10:24:22;21.80;;;11.20;;
84373;SDS011;74563;52.206;14.630;2024-02-26T10:29:12;19.60;;;9.47;;
84373;SDS011;74563;52.206;14.630;2024-02-26T10:34:06;21.20;;;11.32;;
84373;SDS011;74563;52.206;14.630;2024-02-26T10:39:01;20.92;;;11.57;;
84373;SDS011;74563;52.206;14.630;2024-02-26T10:41:27;19.45;;;9.52;;
84373;SDS011;74563;52.206;14.630;2024-02-26T10:46:17;14.43;;;7.93;;
84373;SDS011;74563;52.206;14.630;2024-02-26T10:51:14;15.00;;;8.10;;
84373;SDS011;74563;52.206;14.630;2024-02-26T10:53:41;18.73;;;9.02;;
84373;SDS011;74563;52.206;14.630;2024-02-26T10:56:09;16.88;;;8.90;;
84373;SDS011;74563;52.206;14.630;2024-02-26T10:58:36;16.48;;;8.63;;
84373;SDS011;74563;52.206;14.630;2024-02-26T11:03:28;20.45;;;9.27;;
84373;SDS011;74563;52.206;14.630;2024-02-26T11:05:57;30.80;;;15.00;;
84373;SDS011;74563;52.206;14.630;2024-02-26T11:08:25;18.77;;;8.63;;
84373;SDS011;74563;52.206;14.630;2024-02-26T11:10:52;21.90;;;10.18;;
84373;SDS011;74563;52.206;14.630;2024-02-26T11:13:19;22.63;;;11.52;;
84373;SDS011;74563;52.206;14.630;2024-02-26T11:15:46;20.65;;;9.93;;
84373;SDS011;74563;52.206;14.630;2024-02-26T11:18:15;21.15;;;10.55;;
84373;SDS011;74563;52.206;14.630;2024-02-26T11:20:41;17.27;;;8.23;;
84373;SDS011;74563;52.206;14.630;2024-02-26T11:23:07;21.70;;;10.57;;
84373;SDS011;74563;52.206;14.630;2024-02-26T11:28:00;21.77;;;10.75;;
84373;SDS011;74563;52.206;14.630;2024-02-26T11:30:30;15.38;;;7.80;;
84373;SDS011;74563;52.206;14.630;2024-02-26T11:32:57;21.70;;;9.68;;
84373;SDS011;74563;52.206;14.630;2024-02-26T11:37:55;23.35;;;10.40;;
84373;SDS011;74563;52.206;14.630;2024-02-26T11:40:24;18.85;;;10.07;;
84373;SDS011;74563;52.206;14.630;2024-02-26T11:42:53;20.02;;;9.32;;
84373;SDS011;74563;52.206;14.630;2024-02-26T11:48:02;23.25;;;11.45;;
84373;SDS011;74563;52.206;14.630;2024-02-26T11:55:46;19.67;;;9.82;;
84373;SDS011;74563;52.206;14.630;2024-02-26T12:00:36;19.97;;;10.60;;
84373;SDS011;74563;52.206;14.630;2024-02-26T12:03:05;19.70;;;9.90;;
84373;SDS011;74563;52.206;14.630;2024-02-26T12:05:33;16.38;;;8.27;;
84373;SDS011;74563;52.206;14.630;2024-02-26T12:08:06;21.42;;;10.88;;
84373;SDS011;74563;52.206;14.630;2024-02-26T12:10:33;17.63;;;9.27;;
84373;SDS011;74563;52.206;14.630;2024-02-26T12:13:06;18.52;;;10.27;;
84373;SDS011;74563;52.206;14.630;2024-02-26T12:15:34;20.58;;;11.40;;
84373;SDS011;74563;52.206;14.630;2024-02-26T12:18:03;23.70;;;11.63;;
84373;SDS011;74563;52.206;14.630;2024-02-26T12:20:30;19.60;;;9.52;;
84373;SDS011;74563;52.206;14.630;2024-02-26T12:22:56;18.40;;;10.10;;
84373;SDS011;74563;52.206;14.630;2024-02-26T12:25:23;15.63;;;8.30;;
84373;SDS011;74563;52.206;14.630;2024-02-26T12:27:51;20.90;;;10.25;;
84373;SDS011;74563;52.206;14.630;2024-02-26T12:32:41;17.57;;;9.37;;
84373;SDS011;74563;52.206;14.630;2024-02-26T12:35:07;18.63;;;9.30;;
84373;SDS011;74563;52.206;14.630;2024-02-26T12:40:01;20.30;;;10.48;;
84373;SDS011;74563;52.206;14.630;2024-02-26T12:44:52;21.10;;;10.55;;
84373;SDS011;74563;52.206;14.630;2024-02-26T12:47:17;18.52;;;8.88;;
84373;SDS011;74563;52.206;14.630;2024-02-26T12:49:45;19.20;;;10.27;;
84373;SDS011;74563;52.206;14.630;2024-02-26T12:52:12;18.48;;;9.75;;
84373;SDS011;74563;52.206;14.630;2024-02-26T12:54:38;18.42;;;9.57;;
84373;SDS011;74563;52.206;14.630;2024-02-26T12:57:04;21.10;;;10.88;;
84373;SDS011;74563;52.206;14.630;2024-02-26T12:59:31;16.77;;;8.48;;
84373;SDS011;74563;52.206;14.630;2024-02-26T13:01:58;17.08;;;8.65;;
84373;SDS011;74563;52.206;14.630;2024-02-26T13:04:24;11.02;;;5.75;;
84373;SDS011;74563;52.206;14.630;2024-02-26T13:06:50;14.20;;;7.10;;
84373;SDS011;74563;52.206;14.630;2024-02-26T13:09:16;12.52;;;6.25;;
84373;SDS011;74563;52.206;14.630;2024-02-26T13:11:43;13.27;;;6.55;;
84373;SDS011;74563;52.206;14.630;2024-02-26T13:14:20;11.80;;;5.97;;
84373;SDS011;74563;52.206;14.630;2024-02-26T13:16:53;12.23;;;5.93;;
84373;SDS011;74563;52.206;14.630;2024-02-26T13:19:19;15.10;;;6.43;;
84373;SDS011;74563;52.206;14.630;2024-02-26T13:21:45;11.73;;;5.90;;
84373;SDS011;74563;52.206;14.630;2024-02-26T13:24:12;12.90;;;6.03;;
84373;SDS011;74563;52.206;14.630;2024-02-26T13:26:38;13.43;;;6.50;;
84373;SDS011;74563;52.206;14.630;2024-02-26T13:31:29;21.42;;;9.43;;
84373;SDS011;74563;52.206;14.630;2024-02-26T13:33:54;13.63;;;6.65;;
84373;SDS011;74563;52.206;14.630;2024-02-26T13:38:53;11.50;;;5.32;;
84373;SDS011;74563;52.206;14.630;2024-02-26T13:41:19;12.70;;;5.38;;
84373;SDS011;74563;52.206;14.630;2024-02-26T13:43:46;11.38;;;5.43;;
84373;SDS011;74563;52.206;14.630;2024-02-26T13:46:11;11.05;;;5.65;;
84373;SDS011;74563;52.206;14.630;2024-02-26T13:48:38;12.82;;;6.18;;
84373;SDS011;74563;52.206;14.630;2024-02-26T13:51:04;13.93;;;7.03;;
84373;SDS011;74563;52.206;14.630;2024-02-26T13:53:29;11.80;;;5.80;;
84373;SDS011;74563;52.206;14.630;2024-02-26T13:55:54;14.90;;;7.27;;
84373;SDS011;74563;52.206;14.630;2024-02-26T13:58:20;12.77;;;5.72;;
84373;SDS011;74563;52.206;14.630;2024-02-26T14:00:48;11.48;;;5.88;;
84373;SDS011;74563;52.206;14.630;2024-02-26T14:03:14;12.75;;;6.07;;
84373;SDS011;74563;52.206;14.630;2024-02-26T14:05:39;13.90;;;5.37;;
84373;SDS011;74563;52.206;14.630;2024-02-26T14:08:05;18.08;;;7.38;;
84373;SDS011;74563;52.206;14.630;2024-02-26T14:10:31;12.60;;;5.97;;
84373;SDS011;74563;52.206;14.630;2024-02-26T14:12:56;15.77;;;7.00;;
84373;SDS011;74563;52.206;14.630;2024-02-26T14:15:22;12.48;;;5.93;;
84373;SDS011;74563;52.206;14.630;2024-02-26T14:17:50;12.70;;;6.15;;
84373;SDS011;74563;52.206;14.630;2024-02-26T14:20:19;12.63;;;5.90;;
84373;SDS011;74563;52.206;14.630;2024-02-26T14:22:45;13.35;;;6.40;;
84373;SDS011;74563;52.206;14.630;2024-02-26T14:25:11;13.50;;;6.47;;
84373;SDS011;74563;52.206;14.630;2024-02-26T14:27:36;14.33;;;6.83;;
84373;SDS011;74563;52.206;14.630;2024-02-26T14:30:01;15.77;;;7.60;;
84373;SDS011;74563;52.206;14.630;2024-02-26T14:34:52;15.90;;;7.22;;
84373;SDS011;74563;52.206;14.630;2024-02-26T14:37:18;16.67;;;7.97;;
84373;SDS011;74563;52.206;14.630;2024-02-26T14:39:43;14.02;;;7.45;;
84373;SDS011;74563;52.206;14.630;2024-02-26T14:42:08;17.23;;;7.97;;
84373;SDS011;74563;52.206;14.630;2024-02-26T14:44:33;13.50;;;6.57;;
84373;SDS011;74563;52.206;14.630;2024-02-26T14:49:24;26.47;;;12.07;;
84373;SDS011;74563;52.206;14.630;2024-02-26T14:51:49;17.83;;;6.53;;
84373;SDS011;74563;52.206;14.630;2024-02-26T14:54:15;14.97;;;7.37;;
84373;SDS011;74563;52.206;14.630;2024-02-26T14:56:40;15.50;;;7.28;;
84373;SDS011;74563;52.206;14.630;2024-02-26T15:01:31;14.65;;;6.78;;
84373;SDS011;74563;52.206;14.630;2024-02-26T15:06:22;16.73;;;7.57;;
84373;SDS011;74563;52.206;14.630;2024-02-26T15:11:13;15.40;;;7.87;;
84373;SDS011;74563;52.206;14.630;2024-02-26T15:13:38;19.05;;;9.18;;
84373;SDS011;74563;52.206;14.630;2024-02-26T15:18:30;19.67;;;8.00;;